• Join FlightAware (Why Join?)
  • Login
  • US Flag GB Flag 
07:27 EDT


 

Airport Tracker/Info


-or-


 

Live Flight TrackerFlight Track Log ✈ TYR919 ✈ 20-Apr-2013 ✈ LOWW / VIE - LOWS / SZG

Flight Track Log - Related Links

Times and Time Zones

All times are in EDT time to prevent confusion due to time zone crossing. See the TYR919 flight status page for this flight to view local times or setup timezone preferences in your user account.

Time Position Orientation Groundspeed Altitude Reporting Facility
EDT Latitude Longitude Course Direction KTS MPH feet Rate Location/Type
15:55 48.0826 16.1981 264° West  Level Estimated
15:56 48.0730 16.0743 263° West  Level Estimated
15:57 48.0634 15.9505 263° West  Level Estimated
15:58 48.0536 15.8268 263° West  Level Estimated
15:59 48.0437 15.7031 263° West  Level Estimated
16:00 48.0337 15.5795 263° West  Level Estimated
16:01 48.0235 15.4560 263° West  Level Estimated
16:02 48.0132 15.3325 263° West  Level Estimated
16:03 48.0028 15.2090 263° West  Level Estimated
16:04 47.9922 15.0856 263° West  Level Estimated
16:05 47.9815 14.9622 263° West  Level Estimated
16:06 47.9707 14.8389 263° West  Level Estimated
16:07 47.9597 14.7157 262° West  Level Estimated
16:08 47.9486 14.5925 262° West  Level Estimated
16:09 47.9374 14.4693 262° West  Level Estimated
16:10 47.9260 14.3462 262° West  Level Estimated
16:11 47.9145 14.2232 262° West  Level Estimated
16:12 47.9029 14.1002 262° West  Level Estimated
16:13 47.8912 13.9773 262° West  Level Estimated
16:14 47.8793 13.8544 262° West  Level Estimated
16:15 47.8672 13.7316 262° West  Level Estimated
16:16 47.8551 13.6088 262° West  Level Estimated
16:17 47.8428 13.4861 262° West  Level Estimated
16:18 47.8304 13.3634 261° West  Level Estimated
16:19 47.8179 13.2408 261° West  Level Estimated
16:20 47.8052 13.1183 261° West  Level Estimated
16:21 47.7933 13.0043 261° West  Level Estimated
16:22 47.7933 13.0043 27° Northeast  Level Estimated
16:23 47.7933 13.0043 27° Northeast  Level Estimated
16:24 47.7933 13.0043 27° Northeast  Level Estimated
16:25 47.7933 13.0043 27° Northeast  Level Estimated
16:26 47.7933 13.0043 27° Northeast  Level Estimated
16:27 47.7933 13.0043 27° Northeast  Level Estimated
16:28 47.7933 13.0043 27° Northeast  Level Estimated